createdAt,value
2018-11-11T00:01:10.923Z,993.53
2018-11-11T00:01:49.917Z,993.54
2018-11-11T00:02:50.024Z,993.49
2018-11-11T00:03:49.912Z,993.54
2018-11-11T00:04:49.901Z,993.53
2018-11-11T00:05:49.901Z,993.51
2018-11-11T00:07:10.910Z,993.57
2018-11-11T00:07:49.894Z,993.52
2018-11-11T00:08:49.889Z,993.55
2018-11-11T00:09:49.909Z,993.59
2018-11-11T00:10:49.879Z,993.61
2018-11-11T00:11:49.882Z,993.60
2018-11-11T00:13:10.991Z,993.58
2018-11-11T00:13:49.869Z,993.55
2018-11-11T00:14:49.885Z,993.55
2018-11-11T00:15:49.861Z,993.58
2018-11-11T00:16:49.889Z,993.55
2018-11-11T00:17:49.904Z,993.55
2018-11-11T00:19:10.858Z,993.56
2018-11-11T00:19:49.853Z,993.57
2018-11-11T00:20:49.852Z,993.57
2018-11-11T00:21:49.894Z,993.56
2018-11-11T00:22:49.837Z,993.53
2018-11-11T00:23:49.832Z,993.58
2018-11-11T00:25:10.834Z,993.50
2018-11-11T00:25:49.820Z,993.53
2018-11-11T00:26:49.823Z,993.47
2018-11-11T00:27:49.815Z,993.44
2018-11-11T00:28:49.910Z,993.50
2018-11-11T00:29:49.805Z,993.52
2018-11-11T00:31:10.810Z,993.50
2018-11-11T00:31:49.833Z,993.51
2018-11-11T00:32:49.794Z,993.51
2018-11-11T00:33:49.788Z,993.53
2018-11-11T00:34:49.789Z,993.53
2018-11-11T00:35:49.782Z,993.49
2018-11-11T00:37:10.785Z,993.51
2018-11-11T00:37:49.774Z,993.46
2018-11-11T00:38:49.767Z,993.46
2018-11-11T00:39:49.766Z,993.46
2018-11-11T00:40:49.766Z,993.44
2018-11-11T00:41:49.760Z,993.44
2018-11-11T00:43:10.776Z,993.43
2018-11-11T00:43:49.751Z,993.42
2018-11-11T00:44:49.746Z,993.44
2018-11-11T00:45:49.746Z,993.47
2018-11-11T00:46:49.739Z,993.47
2018-11-11T00:47:49.745Z,993.48
2018-11-11T00:49:10.738Z,993.47
2018-11-11T00:49:49.727Z,993.48
2018-11-11T00:50:49.725Z,993.51
2018-11-11T00:51:49.734Z,993.50
2018-11-11T00:52:49.740Z,993.52
2018-11-11T00:53:49.722Z,993.51
2018-11-11T00:55:10.734Z,993.50
2018-11-11T00:55:49.705Z,993.57
2018-11-11T00:56:49.711Z,993.53
2018-11-11T00:57:49.697Z,993.53
2018-11-11T00:58:49.709Z,993.58
2018-11-11T00:59:49.688Z,993.58
2018-11-11T01:01:10.695Z,993.63
2018-11-11T01:01:49.680Z,993.65
2018-11-11T01:02:49.817Z,993.68
2018-11-11T01:03:49.673Z,993.67
2018-11-11T01:04:49.684Z,993.68
2018-11-11T01:05:49.665Z,993.68
2018-11-11T01:07:10.668Z,993.68
2018-11-11T01:07:49.660Z,993.72
2018-11-11T01:08:49.652Z,993.70
2018-11-11T01:09:49.656Z,993.70
2018-11-11T01:10:49.687Z,993.68
2018-11-11T01:11:49.649Z,993.69
2018-11-11T01:13:10.709Z,993.70
2018-11-11T01:13:49.638Z,993.69
2018-11-11T01:14:49.629Z,993.68
2018-11-11T01:15:49.639Z,993.68
2018-11-11T01:16:49.655Z,993.63
2018-11-11T01:17:49.617Z,993.64
2018-11-11T01:19:10.639Z,993.67
2018-11-11T01:19:49.610Z,993.64
2018-11-11T01:20:49.605Z,993.59
2018-11-11T01:21:49.601Z,993.65
2018-11-11T01:22:49.597Z,993.64
2018-11-11T01:23:49.591Z,993.58
2018-11-11T01:25:10.604Z,993.63
2018-11-11T01:25:49.604Z,993.67
2018-11-11T01:26:49.582Z,993.64
2018-11-11T01:27:49.580Z,993.72
2018-11-11T01:28:49.577Z,993.74
2018-11-11T01:29:49.584Z,993.76
2018-11-11T01:31:10.576Z,993.80
2018-11-11T01:31:49.564Z,993.74
2018-11-11T01:32:49.574Z,993.75
2018-11-11T01:33:49.558Z,993.78
2018-11-11T01:34:49.566Z,993.79
2018-11-11T01:35:49.552Z,993.80
2018-11-11T01:37:10.594Z,993.82
2018-11-11T01:37:49.589Z,993.86
2018-11-11T01:38:49.536Z,993.85
2018-11-11T01:39:49.559Z,993.82
2018-11-11T01:40:49.528Z,993.85
2018-11-11T01:41:49.523Z,993.91
2018-11-11T01:43:10.572Z,993.91
2018-11-11T01:43:49.516Z,993.94
2018-11-11T01:44:49.516Z,993.99
2018-11-11T01:45:49.516Z,993.99
2018-11-11T01:46:49.502Z,993.98
2018-11-11T01:47:49.504Z,993.99
2018-11-11T01:49:10.507Z,993.99
2018-11-11T01:49:49.499Z,994.03
2018-11-11T01:50:49.498Z,994.00
2018-11-11T01:51:49.486Z,993.99
2018-11-11T01:52:49.481Z,994.00
2018-11-11T01:53:49.485Z,993.99
2018-11-11T01:55:10.482Z,993.98
2018-11-11T01:55:49.484Z,994.00
2018-11-11T01:56:49.464Z,993.96
2018-11-11T01:57:49.460Z,993.96
2018-11-11T01:58:49.455Z,993.96
2018-11-11T01:59:49.452Z,993.96
2018-11-11T02:01:10.456Z,993.97
2018-11-11T02:01:49.443Z,993.97
2018-11-11T02:02:49.445Z,993.92
2018-11-11T02:03:49.445Z,993.95
2018-11-11T02:04:49.437Z,993.94
2018-11-11T02:05:49.430Z,993.92
2018-11-11T02:07:10.435Z,993.94
2018-11-11T02:07:49.420Z,993.95
2018-11-11T02:08:49.417Z,993.94
2018-11-11T02:09:49.473Z,993.95
2018-11-11T02:10:49.409Z,993.96
2018-11-11T02:11:49.403Z,993.90
2018-11-11T02:13:10.472Z,993.97
2018-11-11T02:13:49.415Z,993.98
2018-11-11T02:14:49.391Z,993.98
2018-11-11T02:15:49.390Z,994.04
2018-11-11T02:16:49.383Z,994.05
2018-11-11T02:17:49.377Z,994.05
2018-11-11T02:19:10.386Z,994.05
2018-11-11T02:19:49.371Z,994.07
2018-11-11T02:20:49.418Z,994.03
2018-11-11T02:21:49.372Z,994.04
2018-11-11T02:22:49.358Z,994.09
2018-11-11T02:23:49.360Z,994.10
2018-11-11T02:25:10.356Z,994.15
2018-11-11T02:25:49.346Z,994.19
2018-11-11T02:26:49.377Z,994.23
2018-11-11T02:27:49.346Z,994.27
2018-11-11T02:28:49.332Z,994.27
2018-11-11T02:29:49.328Z,994.25
2018-11-11T02:31:10.335Z,994.30
2018-11-11T02:31:49.320Z,994.33
2018-11-11T02:32:49.321Z,994.36
2018-11-11T02:33:49.317Z,994.38
2018-11-11T02:34:49.307Z,994.36
2018-11-11T02:35:49.316Z,994.37
2018-11-11T02:37:10.306Z,994.36
2018-11-11T02:37:49.323Z,994.38
2018-11-11T02:38:49.295Z,994.41
2018-11-11T02:39:49.286Z,994.41
2018-11-11T02:40:49.285Z,994.41
2018-11-11T02:41:49.275Z,994.42
2018-11-11T02:43:10.361Z,994.38
2018-11-11T02:43:49.270Z,994.44
2018-11-11T02:44:49.262Z,994.42
2018-11-11T02:45:49.275Z,994.42
2018-11-11T02:46:49.258Z,994.43
2018-11-11T02:47:49.253Z,994.46
2018-11-11T02:49:10.253Z,994.46
2018-11-11T02:49:49.246Z,994.43
2018-11-11T02:50:49.236Z,994.38
2018-11-11T02:51:49.234Z,994.37
2018-11-11T02:52:49.231Z,994.33
2018-11-11T02:53:49.227Z,994.38
2018-11-11T02:55:10.244Z,994.32
2018-11-11T02:55:49.226Z,994.31
2018-11-11T02:56:49.234Z,994.30
2018-11-11T02:57:49.210Z,994.29
2018-11-11T02:58:49.205Z,994.26
2018-11-11T02:59:49.198Z,994.29
2018-11-11T03:01:10.202Z,994.30
2018-11-11T03:01:49.192Z,994.30
2018-11-11T03:02:49.202Z,994.28
2018-11-11T03:03:49.183Z,994.28
2018-11-11T03:04:49.178Z,994.23
2018-11-11T03:05:49.179Z,994.25
2018-11-11T03:07:10.177Z,994.25
2018-11-11T03:07:49.162Z,994.27
2018-11-11T03:08:49.159Z,994.25
2018-11-11T03:09:49.154Z,994.26
2018-11-11T03:10:49.154Z,994.27
2018-11-11T03:11:49.145Z,994.29
2018-11-11T03:13:10.260Z,994.25
2018-11-11T03:13:49.140Z,994.29
2018-11-11T03:14:49.131Z,994.28
2018-11-11T03:15:49.129Z,994.24
2018-11-11T03:16:49.123Z,994.20
2018-11-11T03:17:49.124Z,994.22
2018-11-11T03:19:10.121Z,994.26
2018-11-11T03:19:49.119Z,994.33
2018-11-11T03:20:49.108Z,994.35
2018-11-11T03:21:49.099Z,994.35
2018-11-11T03:22:49.096Z,994.38
2018-11-11T03:23:49.093Z,994.38
2018-11-11T03:25:10.094Z,994.35
2018-11-11T03:25:49.080Z,994.44
2018-11-11T03:26:49.079Z,994.48
2018-11-11T03:27:49.073Z,994.50
2018-11-11T03:28:49.073Z,994.51
2018-11-11T03:29:49.069Z,994.53
2018-11-11T03:31:10.079Z,994.53
2018-11-11T03:31:49.058Z,994.59
2018-11-11T03:32:49.060Z,994.56
2018-11-11T03:33:49.043Z,994.60
2018-11-11T03:34:49.036Z,994.54
2018-11-11T03:35:49.036Z,994.57
2018-11-11T03:37:10.038Z,994.56
2018-11-11T03:37:49.029Z,994.55
2018-11-11T03:38:49.021Z,994.58
2018-11-11T03:39:49.016Z,994.60
2018-11-11T03:40:49.011Z,994.56
2018-11-11T03:41:49.005Z,994.56
2018-11-11T03:43:10.052Z,994.56
2018-11-11T03:43:48.999Z,994.54
2018-11-11T03:44:48.993Z,994.48
2018-11-11T03:45:48.988Z,994.50
2018-11-11T03:46:48.988Z,994.49
2018-11-11T03:47:48.979Z,994.46
2018-11-11T03:49:09.985Z,994.46
2018-11-11T03:49:48.970Z,994.48
2018-11-11T03:50:48.966Z,994.50
2018-11-11T03:51:48.961Z,994.51
2018-11-11T03:52:48.958Z,994.54
2018-11-11T03:53:48.950Z,994.53
2018-11-11T03:55:09.956Z,994.51
2018-11-11T03:55:48.941Z,994.55
2018-11-11T03:56:48.935Z,994.54
2018-11-11T03:57:48.934Z,994.48
2018-11-11T03:58:48.967Z,994.44
2018-11-11T03:59:48.922Z,994.45
2018-11-11T04:01:09.924Z,994.49
2018-11-11T04:01:48.915Z,994.46
2018-11-11T04:02:48.998Z,994.45
2018-11-11T04:03:48.918Z,994.44
2018-11-11T04:04:48.901Z,994.48
2018-11-11T04:05:48.896Z,994.46
2018-11-11T04:07:09.900Z,994.46
2018-11-11T04:07:48.885Z,994.48
2018-11-11T04:08:48.881Z,994.47
2018-11-11T04:09:48.877Z,994.52
2018-11-11T04:10:48.875Z,994.51
2018-11-11T04:11:48.910Z,994.52
2018-11-11T04:13:09.954Z,994.54
2018-11-11T04:13:48.857Z,994.53
2018-11-11T04:14:48.853Z,994.51
2018-11-11T04:15:48.848Z,994.46
2018-11-11T04:16:48.845Z,994.51
2018-11-11T04:17:48.838Z,994.48
2018-11-11T04:19:09.877Z,994.47
2018-11-11T04:19:48.830Z,994.44
2018-11-11T04:20:48.826Z,994.45
2018-11-11T04:21:48.820Z,994.43
2018-11-11T04:22:48.815Z,994.36
2018-11-11T04:23:48.816Z,994.35
2018-11-11T04:25:09.818Z,994.39
2018-11-11T04:25:48.800Z,994.39
2018-11-11T04:26:48.797Z,994.39
2018-11-11T04:27:48.792Z,994.38
2018-11-11T04:28:48.792Z,994.36
2018-11-11T04:29:48.784Z,994.34
2018-11-11T04:31:09.790Z,994.39
2018-11-11T04:31:48.774Z,994.35
2018-11-11T04:32:48.771Z,994.32
2018-11-11T04:33:48.769Z,994.34
2018-11-11T04:34:48.763Z,994.34
2018-11-11T04:35:48.755Z,994.29
2018-11-11T04:37:09.759Z,994.32
2018-11-11T04:37:48.770Z,994.32
2018-11-11T04:38:48.743Z,994.38
2018-11-11T04:39:48.745Z,994.36
2018-11-11T04:40:48.731Z,994.35
2018-11-11T04:41:48.728Z,994.38
2018-11-11T04:43:09.745Z,994.36
2018-11-11T04:43:48.725Z,994.39
2018-11-11T04:44:48.713Z,994.42
2018-11-11T04:45:48.709Z,994.43
2018-11-11T04:46:48.707Z,994.41
2018-11-11T04:47:48.699Z,994.38
2018-11-11T04:49:09.713Z,994.32
2018-11-11T04:49:48.689Z,994.37
2018-11-11T04:50:48.690Z,994.39
2018-11-11T04:51:48.688Z,994.41
2018-11-11T04:52:48.677Z,994.43
2018-11-11T04:53:48.690Z,994.44
2018-11-11T04:55:09.674Z,994.47
2018-11-11T04:55:48.664Z,994.48
2018-11-11T04:56:48.658Z,994.47
2018-11-11T04:57:48.656Z,994.51
2018-11-11T04:58:48.648Z,994.50
2018-11-11T04:59:48.647Z,994.51
2018-11-11T05:01:09.642Z,994.50
2018-11-11T05:01:48.635Z,994.52
2018-11-11T05:02:48.637Z,994.50
2018-11-11T05:03:48.625Z,994.52
2018-11-11T05:04:48.693Z,994.41
2018-11-11T05:05:48.619Z,994.40
2018-11-11T05:07:09.620Z,994.38
2018-11-11T05:07:48.608Z,994.38
2018-11-11T05:08:48.602Z,994.38
2018-11-11T05:09:48.596Z,994.34
2018-11-11T05:10:48.594Z,994.33
2018-11-11T05:11:48.590Z,994.33
2018-11-11T05:13:09.645Z,994.35
2018-11-11T05:13:48.581Z,994.37
2018-11-11T05:14:48.576Z,994.41
2018-11-11T05:15:48.569Z,994.38
2018-11-11T05:16:48.564Z,994.35
2018-11-11T05:17:48.564Z,994.31
2018-11-11T05:19:09.565Z,994.27
2018-11-11T05:19:48.551Z,994.26
2018-11-11T05:20:48.549Z,994.26
2018-11-11T05:21:48.591Z,994.28
2018-11-11T05:22:48.542Z,994.35
2018-11-11T05:23:48.540Z,994.38
2018-11-11T05:25:09.535Z,994.41
2018-11-11T05:25:48.526Z,994.39
2018-11-11T05:26:48.523Z,994.44
2018-11-11T05:27:48.515Z,994.42
2018-11-11T05:28:48.507Z,994.36
2018-11-11T05:29:48.523Z,994.42
2018-11-11T05:31:09.509Z,994.36
2018-11-11T05:31:48.497Z,994.36
2018-11-11T05:32:48.583Z,994.31
2018-11-11T05:33:48.489Z,994.40
2018-11-11T05:34:48.482Z,994.37
2018-11-11T05:35:48.477Z,994.31
2018-11-11T05:37:09.477Z,994.31
2018-11-11T05:37:48.465Z,994.35
2018-11-11T05:38:48.473Z,994.34
2018-11-11T05:39:48.458Z,994.36
2018-11-11T05:40:48.453Z,994.36
2018-11-11T05:41:48.479Z,994.41
2018-11-11T05:43:09.540Z,994.43
2018-11-11T05:43:48.438Z,994.46
2018-11-11T05:44:48.436Z,994.38
2018-11-11T05:45:48.428Z,994.34
2018-11-11T05:46:48.423Z,994.27
2018-11-11T05:47:48.421Z,994.21
2018-11-11T05:49:09.419Z,994.11
2018-11-11T05:49:48.411Z,994.11
2018-11-11T05:50:48.404Z,994.16
2018-11-11T05:51:48.401Z,994.26
2018-11-11T05:52:48.394Z,994.22
2018-11-11T05:53:48.388Z,994.22
2018-11-11T05:55:09.397Z,994.23
2018-11-11T05:55:48.381Z,994.20
2018-11-11T05:56:48.374Z,994.18
2018-11-11T05:57:48.370Z,994.21
2018-11-11T05:58:48.366Z,994.27
2018-11-11T05:59:48.359Z,994.28
2018-11-11T06:01:09.362Z,994.31
2018-11-11T06:01:48.352Z,994.35
2018-11-11T06:02:48.357Z,994.38
2018-11-11T06:03:48.342Z,994.40
2018-11-11T06:04:48.340Z,994.44
2018-11-11T06:05:48.331Z,994.51
2018-11-11T06:07:09.334Z,994.54
2018-11-11T06:07:48.322Z,994.60
2018-11-11T06:08:48.319Z,994.66
2018-11-11T06:09:48.313Z,994.63
2018-11-11T06:10:48.308Z,994.58
2018-11-11T06:11:48.307Z,994.58
2018-11-11T06:13:09.335Z,994.62
2018-11-11T06:13:48.298Z,994.60
2018-11-11T06:14:48.289Z,994.64
2018-11-11T06:15:48.282Z,994.58
2018-11-11T06:16:48.281Z,994.60
2018-11-11T06:17:48.275Z,994.62
2018-11-11T06:19:09.277Z,994.57
2018-11-11T06:19:48.266Z,994.55
2018-11-11T06:20:48.258Z,994.52
2018-11-11T06:21:48.253Z,994.47
2018-11-11T06:22:48.250Z,994.51
2018-11-11T06:23:48.243Z,994.58
2018-11-11T06:25:09.245Z,994.58
2018-11-11T06:25:48.236Z,994.59
2018-11-11T06:26:48.230Z,994.67
2018-11-11T06:27:48.225Z,994.65
2018-11-11T06:28:48.216Z,994.68
2018-11-11T06:29:48.217Z,994.63
2018-11-11T06:31:09.216Z,994.56
2018-11-11T06:31:48.210Z,994.60
2018-11-11T06:32:48.200Z,994.65
2018-11-11T06:33:48.231Z,994.68
2018-11-11T06:34:48.191Z,994.69
2018-11-11T06:35:48.187Z,994.72
2018-11-11T06:37:09.185Z,994.68
2018-11-11T06:37:48.173Z,994.71
2018-11-11T06:38:48.168Z,994.63
2018-11-11T06:39:48.166Z,994.58
2018-11-11T06:40:48.161Z,994.49
2018-11-11T06:41:48.158Z,994.50
2018-11-11T06:43:09.233Z,994.44
2018-11-11T06:43:48.145Z,994.41
2018-11-11T06:44:48.141Z,994.33
2018-11-11T06:45:48.136Z,994.33
2018-11-11T06:46:48.130Z,994.30
2018-11-11T06:47:48.167Z,994.36
2018-11-11T06:49:09.135Z,994.41
2018-11-11T06:49:48.115Z,994.43
2018-11-11T06:50:48.110Z,994.44
2018-11-11T06:51:48.106Z,994.44
2018-11-11T06:52:48.109Z,994.42
2018-11-11T06:53:48.104Z,994.39
2018-11-11T06:55:09.099Z,994.38
2018-11-11T06:55:48.087Z,994.34
2018-11-11T06:56:48.081Z,994.32
2018-11-11T06:57:48.132Z,994.27
2018-11-11T06:58:48.071Z,994.14
2018-11-11T06:59:48.068Z,994.13
2018-11-11T07:01:09.065Z,994.13
2018-11-11T07:01:48.055Z,994.17
2018-11-11T07:02:48.050Z,994.14
2018-11-11T07:03:48.045Z,994.18
2018-11-11T07:04:48.039Z,994.18
2018-11-11T07:05:48.034Z,994.17
2018-11-11T07:07:09.042Z,994.16
2018-11-11T07:07:48.026Z,994.21
2018-11-11T07:08:48.021Z,994.23
2018-11-11T07:09:48.016Z,994.18
2018-11-11T07:10:48.010Z,994.18
2018-11-11T07:11:48.004Z,994.23
2018-11-11T07:13:09.027Z,994.30
2018-11-11T07:13:48.017Z,994.35
2018-11-11T07:14:47.994Z,994.39
2018-11-11T07:15:47.990Z,994.41
2018-11-11T07:16:47.980Z,994.48
2018-11-11T07:17:47.974Z,994.46
2018-11-11T07:19:08.977Z,994.43
2018-11-11T07:19:47.965Z,994.41
2018-11-11T07:20:47.958Z,994.43
2018-11-11T07:21:47.955Z,994.45
2018-11-11T07:22:47.951Z,994.49
2018-11-11T07:23:48.056Z,994.51
2018-11-11T07:25:08.948Z,994.54
2018-11-11T07:25:47.933Z,994.48
2018-11-11T07:26:47.930Z,994.53
2018-11-11T07:27:47.927Z,994.55
2018-11-11T07:28:47.925Z,994.59
2018-11-11T07:29:47.918Z,994.61
2018-11-11T07:31:08.916Z,994.65
2018-11-11T07:31:47.914Z,994.66
2018-11-11T07:32:47.901Z,994.61
2018-11-11T07:33:47.896Z,994.60
2018-11-11T07:34:47.913Z,994.59
2018-11-11T07:35:47.926Z,994.57
2018-11-11T07:37:08.886Z,994.61
2018-11-11T07:37:47.874Z,994.60
2018-11-11T07:38:47.871Z,994.57
2018-11-11T07:39:47.867Z,994.52
2018-11-11T07:40:47.859Z,994.53
2018-11-11T07:41:47.854Z,994.47
2018-11-11T07:43:08.922Z,994.40
2018-11-11T07:43:47.849Z,994.30
2018-11-11T07:44:47.840Z,994.24
2018-11-11T07:45:47.836Z,994.23
2018-11-11T07:46:47.833Z,994.22
2018-11-11T07:47:47.863Z,994.22
2018-11-11T07:49:08.829Z,994.15
2018-11-11T07:49:47.817Z,994.20
2018-11-11T07:50:47.813Z,994.14
2018-11-11T07:51:47.836Z,994.09
2018-11-11T07:52:47.803Z,994.10
2018-11-11T07:53:47.796Z,994.22
2018-11-11T07:55:08.925Z,994.22
2018-11-11T07:55:47.786Z,994.21
2018-11-11T07:56:47.786Z,994.29
2018-11-11T07:57:47.776Z,994.34
2018-11-11T07:58:47.774Z,994.34
2018-11-11T07:59:47.767Z,994.46
2018-11-11T08:01:08.768Z,994.53
2018-11-11T08:01:47.885Z,994.61
2018-11-11T08:02:47.764Z,994.61
2018-11-11T08:03:47.756Z,994.64
2018-11-11T08:04:47.742Z,994.64
2018-11-11T08:05:47.737Z,994.62
2018-11-11T08:07:08.742Z,994.64
2018-11-11T08:07:47.735Z,994.67
2018-11-11T08:08:47.720Z,994.72
2018-11-11T08:09:47.717Z,994.69
2018-11-11T08:10:47.713Z,994.71
2018-11-11T08:11:47.707Z,994.76
2018-11-11T08:13:08.821Z,994.79
2018-11-11T08:13:47.697Z,994.73
2018-11-11T08:14:47.693Z,994.77
2018-11-11T08:15:47.688Z,994.79
2018-11-11T08:16:47.819Z,994.85
2018-11-11T08:17:47.676Z,994.86
2018-11-11T08:19:08.681Z,994.86
2018-11-11T08:19:47.671Z,994.88
2018-11-11T08:20:47.665Z,994.88
2018-11-11T08:21:47.656Z,994.90
2018-11-11T08:22:47.659Z,994.98
2018-11-11T08:23:47.651Z,994.99
2018-11-11T08:25:08.649Z,995.03
2018-11-11T08:25:47.639Z,995.16
2018-11-11T08:26:47.635Z,995.23
2018-11-11T08:27:47.630Z,995.28
2018-11-11T08:28:47.624Z,995.23
2018-11-11T08:29:47.620Z,995.23
2018-11-11T08:31:08.636Z,995.30
2018-11-11T08:31:47.613Z,995.44
2018-11-11T08:32:47.658Z,995.50
2018-11-11T08:33:47.602Z,995.55
2018-11-11T08:34:47.598Z,995.56
2018-11-11T08:35:47.591Z,995.54
2018-11-11T08:37:08.593Z,995.58
2018-11-11T08:37:47.582Z,995.56
2018-11-11T08:38:47.576Z,995.55
2018-11-11T08:39:47.574Z,995.59
2018-11-11T08:40:47.567Z,995.68
2018-11-11T08:41:47.563Z,995.78
2018-11-11T08:43:08.622Z,995.78
2018-11-11T08:43:47.555Z,995.78
2018-11-11T08:44:47.548Z,995.84
2018-11-11T08:45:47.552Z,995.87
2018-11-11T08:46:47.540Z,995.91
2018-11-11T08:47:47.538Z,996.02
2018-11-11T08:49:08.540Z,996.03
2018-11-11T08:49:47.533Z,996.06
2018-11-11T08:50:47.522Z,996.02
2018-11-11T08:51:47.519Z,996.06
2018-11-11T08:52:47.527Z,996.04
2018-11-11T08:53:47.511Z,996.09
2018-11-11T08:55:08.517Z,996.08
2018-11-11T08:55:47.501Z,996.04
2018-11-11T08:56:47.502Z,995.98
2018-11-11T08:57:47.523Z,995.97
2018-11-11T08:58:47.491Z,995.99
2018-11-11T08:59:47.484Z,996.01
2018-11-11T09:01:08.491Z,996.04
2018-11-11T09:01:47.480Z,996.02
2018-11-11T09:02:47.471Z,995.96
2018-11-11T09:03:47.466Z,995.95
2018-11-11T09:04:47.508Z,995.98
2018-11-11T09:05:47.462Z,996.06
2018-11-11T09:07:08.465Z,996.13
2018-11-11T09:07:47.449Z,996.22
2018-11-11T09:08:47.454Z,996.23
2018-11-11T09:09:47.441Z,996.26
2018-11-11T09:10:47.433Z,996.26
2018-11-11T09:11:47.434Z,996.29
2018-11-11T09:13:08.512Z,996.30
2018-11-11T09:13:47.423Z,996.31
2018-11-11T09:14:47.417Z,996.30
2018-11-11T09:15:47.411Z,996.36
2018-11-11T09:16:47.412Z,996.37
2018-11-11T09:17:47.403Z,996.41
2018-11-11T09:19:08.409Z,996.42
2018-11-11T09:19:47.394Z,996.42
2018-11-11T09:20:47.388Z,996.43
2018-11-11T09:21:47.385Z,996.46
2018-11-11T09:22:47.383Z,996.55
2018-11-11T09:23:47.424Z,996.52
2018-11-11T09:25:08.381Z,996.56
2018-11-11T09:25:47.366Z,996.59
2018-11-11T09:26:47.374Z,996.57
2018-11-11T09:27:47.360Z,996.59
2018-11-11T09:28:47.354Z,996.57
2018-11-11T09:29:47.466Z,996.55
2018-11-11T09:31:08.355Z,996.56
2018-11-11T09:31:47.341Z,996.52
2018-11-11T09:32:47.339Z,996.47
2018-11-11T09:33:47.332Z,996.41
2018-11-11T09:34:47.328Z,996.39
2018-11-11T09:35:47.327Z,996.42
2018-11-11T09:37:08.324Z,996.42
2018-11-11T09:37:47.317Z,996.39
2018-11-11T09:38:47.320Z,996.43
2018-11-11T09:39:47.309Z,996.41
2018-11-11T09:40:47.301Z,996.42
2018-11-11T09:41:47.299Z,996.41
2018-11-11T09:43:08.409Z,996.41
2018-11-11T09:43:47.290Z,996.41
2018-11-11T09:44:47.282Z,996.32
2018-11-11T09:45:47.282Z,996.38
2018-11-11T09:46:47.280Z,996.34
2018-11-11T09:47:47.304Z,996.37
2018-11-11T09:49:08.273Z,996.36
2018-11-11T09:49:47.262Z,996.36
2018-11-11T09:50:47.260Z,996.39
2018-11-11T09:51:47.284Z,996.37
2018-11-11T09:52:47.337Z,996.35
2018-11-11T09:53:47.253Z,996.32
2018-11-11T09:55:08.252Z,996.36
2018-11-11T09:55:47.238Z,996.33
2018-11-11T09:56:47.235Z,996.36
2018-11-11T09:57:47.233Z,996.36
2018-11-11T09:58:47.277Z,996.36
2018-11-11T09:59:47.300Z,996.36
2018-11-11T10:01:08.228Z,996.32
2018-11-11T10:01:47.213Z,996.31
2018-11-11T10:02:47.213Z,996.25
2018-11-11T10:03:47.227Z,996.16
2018-11-11T10:04:47.211Z,996.18
2018-11-11T10:05:47.200Z,996.14
2018-11-11T10:07:08.284Z,996.14
2018-11-11T10:07:47.194Z,996.21
2018-11-11T10:08:47.188Z,996.19
2018-11-11T10:09:47.189Z,996.19
2018-11-11T10:10:47.181Z,996.14
2018-11-11T10:11:47.179Z,996.15
2018-11-11T10:13:08.207Z,996.15
2018-11-11T10:13:47.173Z,996.15
2018-11-11T10:14:47.168Z,996.11
2018-11-11T10:15:47.170Z,996.10
2018-11-11T10:16:47.167Z,996.05
2018-11-11T10:17:47.155Z,996.03
2018-11-11T10:19:08.165Z,996.07
2018-11-11T10:19:47.158Z,996.09
2018-11-11T10:20:47.240Z,996.10
2018-11-11T10:21:47.166Z,996.09
2018-11-11T10:22:47.141Z,996.09
2018-11-11T10:23:47.135Z,996.05
2018-11-11T10:25:08.138Z,996.10
2018-11-11T10:25:47.128Z,996.10
2018-11-11T10:26:47.124Z,996.10
2018-11-11T10:27:47.128Z,996.13
2018-11-11T10:28:47.117Z,996.11
2018-11-11T10:29:47.139Z,996.12
2018-11-11T10:31:08.118Z,996.12
2018-11-11T10:31:47.106Z,996.11
2018-11-11T10:32:47.101Z,996.14
2018-11-11T10:33:47.101Z,996.13
2018-11-11T10:34:47.098Z,996.18
2018-11-11T10:35:47.093Z,996.17
2018-11-11T10:37:08.148Z,996.20
2018-11-11T10:37:47.088Z,996.17
2018-11-11T10:38:47.081Z,996.13
2018-11-11T10:39:47.078Z,996.11
2018-11-11T10:40:47.077Z,996.06
2018-11-11T10:41:47.072Z,996.03
2018-11-11T10:43:08.102Z,996.04
2018-11-11T10:43:47.063Z,996.05
2018-11-11T10:44:47.081Z,996.01
2018-11-11T10:45:47.057Z,995.99
2018-11-11T10:46:47.054Z,996.02
2018-11-11T10:47:47.050Z,996.05
2018-11-11T10:49:08.053Z,996.01
2018-11-11T10:49:47.046Z,996.04
2018-11-11T10:50:47.040Z,996.05
2018-11-11T10:51:47.038Z,996.11
2018-11-11T10:52:47.086Z,996.10
2018-11-11T10:53:47.026Z,996.07
2018-11-11T10:55:08.037Z,996.11
2018-11-11T10:55:47.022Z,996.08
2018-11-11T10:56:47.017Z,996.07
2018-11-11T10:57:47.017Z,996.12
2018-11-11T10:58:47.013Z,996.10
2018-11-11T10:59:47.008Z,996.08
2018-11-11T11:01:08.013Z,996.03
2018-11-11T11:01:47.000Z,996.04
2018-11-11T11:02:47.025Z,995.99
2018-11-11T11:03:47.087Z,995.99
2018-11-11T11:04:46.990Z,995.97
2018-11-11T11:05:46.990Z,995.97
2018-11-11T11:07:08.039Z,996.00
2018-11-11T11:07:46.979Z,995.93
2018-11-11T11:08:46.994Z,995.89
2018-11-11T11:09:46.970Z,995.93
2018-11-11T11:10:46.971Z,995.97
2018-11-11T11:11:46.963Z,995.90
2018-11-11T11:13:08.092Z,995.95
2018-11-11T11:13:46.976Z,995.94
2018-11-11T11:14:46.951Z,995.87
2018-11-11T11:15:46.952Z,995.89
2018-11-11T11:16:47.046Z,995.84
2018-11-11T11:17:46.941Z,995.82
2018-11-11T11:19:07.947Z,995.83
2018-11-11T11:19:46.933Z,995.83
2018-11-11T11:20:46.929Z,995.89
2018-11-11T11:21:46.963Z,995.87
2018-11-11T11:22:46.947Z,995.87
2018-11-11T11:23:46.924Z,995.82
2018-11-11T11:25:07.921Z,995.80
2018-11-11T11:25:47.015Z,995.76
2018-11-11T11:26:46.910Z,995.76
2018-11-11T11:27:46.909Z,995.73
2018-11-11T11:28:46.904Z,995.75
2018-11-11T11:29:46.896Z,995.78
2018-11-11T11:31:07.919Z,995.80
2018-11-11T11:31:47.057Z,995.81
2018-11-11T11:32:46.885Z,995.80
2018-11-11T11:33:46.882Z,995.80
2018-11-11T11:34:46.877Z,995.87
2018-11-11T11:35:46.953Z,995.86
2018-11-11T11:37:07.938Z,995.91
2018-11-11T11:37:46.939Z,995.86
2018-11-11T11:38:46.884Z,995.90
2018-11-11T11:39:46.912Z,995.88
2018-11-11T11:40:46.884Z,995.87
2018-11-11T11:41:46.883Z,995.79
2018-11-11T11:43:07.897Z,995.79
2018-11-11T11:43:46.867Z,995.87
2018-11-11T11:44:46.849Z,995.86
2018-11-11T11:45:46.842Z,995.88
2018-11-11T11:46:46.834Z,995.89
2018-11-11T11:47:46.837Z,995.87
2018-11-11T11:49:07.835Z,995.87
2018-11-11T11:49:46.845Z,995.84
2018-11-11T11:50:46.826Z,995.81
2018-11-11T11:51:46.848Z,995.80
2018-11-11T11:52:46.869Z,995.84
2018-11-11T11:53:46.810Z,995.87
2018-11-11T11:55:07.814Z,995.89
2018-11-11T11:55:46.880Z,996.00
2018-11-11T11:56:46.804Z,995.98
2018-11-11T11:57:46.847Z,996.03
2018-11-11T11:58:46.792Z,996.05
2018-11-11T11:59:46.806Z,996.05
2018-11-11T12:01:07.792Z,996.01
2018-11-11T12:01:46.866Z,995.97
2018-11-11T12:02:46.782Z,995.94
2018-11-11T12:03:46.777Z,995.97
2018-11-11T12:04:46.784Z,995.93
2018-11-11T12:05:46.767Z,995.92
2018-11-11T12:07:07.774Z,995.94
2018-11-11T12:07:46.762Z,995.94
2018-11-11T12:08:46.822Z,995.91
2018-11-11T12:09:46.787Z,995.93
2018-11-11T12:10:46.751Z,995.95
2018-11-11T12:11:46.752Z,995.90
2018-11-11T12:13:07.921Z,995.84
2018-11-11T12:13:46.798Z,995.81
2018-11-11T12:14:46.806Z,995.81
2018-11-11T12:15:46.739Z,995.78
2018-11-11T12:16:46.860Z,995.84
2018-11-11T12:17:46.727Z,995.85
2018-11-11T12:19:07.732Z,995.87
2018-11-11T12:19:46.721Z,995.84
2018-11-11T12:20:46.730Z,995.83
2018-11-11T12:21:46.713Z,995.85
2018-11-11T12:22:46.712Z,995.86
2018-11-11T12:23:46.718Z,995.83
2018-11-11T12:25:07.724Z,995.88
2018-11-11T12:25:46.702Z,995.93
2018-11-11T12:26:46.697Z,996.00
2018-11-11T12:27:46.697Z,996.02
2018-11-11T12:28:46.702Z,996.05